createdAt,value
2023-02-06T00:01:06.537Z,3.37
2023-02-06T00:08:08.128Z,3.44
2023-02-06T00:15:09.754Z,3.42
2023-02-06T00:22:13.422Z,3.16
2023-02-06T00:29:14.970Z,3.32
2023-02-06T00:36:16.715Z,3.40
2023-02-06T00:43:18.380Z,3.38
2023-02-06T00:50:20.029Z,3.34
2023-02-06T00:57:21.718Z,3.26
2023-02-06T01:04:23.395Z,3.27
2023-02-06T01:11:25.392Z,3.19
2023-02-06T01:18:27.736Z,3.29
2023-02-06T01:25:29.284Z,3.20
2023-02-06T01:32:30.888Z,3.09
2023-02-06T01:39:33.056Z,3.21
2023-02-06T01:46:34.660Z,3.24
2023-02-06T01:53:36.324Z,3.27
2023-02-06T02:00:38.059Z,3.17
2023-02-06T02:07:47.350Z,3.08
2023-02-06T02:14:48.936Z,2.92
2023-02-06T02:22:32.619Z,2.92
2023-02-06T02:29:49.052Z,2.87
2023-02-06T02:36:52.642Z,2.92
2023-02-06T02:43:58.324Z,3.08
2023-02-06T02:51:00.864Z,3.17
2023-02-06T02:58:08.186Z,3.18
2023-02-06T03:05:11.531Z,3.11
2023-02-06T03:13:01.216Z,3.32
2023-02-06T03:20:04.016Z,3.17
2023-02-06T03:27:09.651Z,3.33
2023-02-06T03:34:14.954Z,3.37
2023-02-06T03:41:17.442Z,3.42
2023-02-06T03:48:43.899Z,3.64
2023-02-06T03:55:46.002Z,3.63
2023-02-06T04:02:47.617Z,3.63
2023-02-06T04:09:49.278Z,3.73
2023-02-06T04:16:51.015Z,3.38
2023-02-06T04:23:52.569Z,3.59
2023-02-06T04:30:54.209Z,3.71
2023-02-06T04:37:55.894Z,3.82
2023-02-06T04:44:57.477Z,3.81
2023-02-06T04:51:59.022Z,3.68
2023-02-06T04:59:00.735Z,3.80
2023-02-06T05:06:03.014Z,3.46
2023-02-06T05:13:04.740Z,3.79
2023-02-06T05:20:06.892Z,3.72
2023-02-06T05:27:08.454Z,3.63
2023-02-06T05:34:10.227Z,3.57
2023-02-06T05:41:11.799Z,3.57
2023-02-06T05:48:13.441Z,3.67
2023-02-06T05:55:16.920Z,3.81
2023-02-06T06:02:18.592Z,3.97
2023-02-06T06:09:20.148Z,3.83
2023-02-06T06:16:21.904Z,3.83
2023-02-06T06:23:23.554Z,3.93
2023-02-06T06:30:25.221Z,3.86
2023-02-06T06:37:26.830Z,3.98
2023-02-06T06:44:28.425Z,4.04
2023-02-06T06:51:30.109Z,3.96
2023-02-06T06:58:31.771Z,3.96
2023-02-06T07:05:33.818Z,3.88
2023-02-06T07:12:35.532Z,3.88
2023-02-06T07:19:37.094Z,4.12
2023-02-06T07:26:38.650Z,4.18
2023-02-06T07:33:40.213Z,4.23
2023-02-06T07:40:45.934Z,4.28
2023-02-06T07:47:47.744Z,4.38
2023-02-06T07:54:49.374Z,4.43
2023-02-06T08:01:51.930Z,4.47
2023-02-06T08:08:56.558Z,4.39
2023-02-06T08:15:58.115Z,4.39
2023-02-06T08:22:59.703Z,4.58
2023-02-06T08:30:01.335Z,4.63
2023-02-06T08:37:02.910Z,4.47
2023-02-06T08:44:07.216Z,4.65
2023-02-06T08:51:09.494Z,4.71
2023-02-06T08:58:11.106Z,4.74
2023-02-06T09:05:12.648Z,4.69
2023-02-06T09:12:15.806Z,4.42
2023-02-06T09:19:17.344Z,4.36
2023-02-06T09:26:20.852Z,4.37
2023-02-06T09:33:22.511Z,4.70
2023-02-06T09:40:26.863Z,4.58
2023-02-06T09:47:30.498Z,4.64
2023-02-06T09:54:37.979Z,4.64
2023-02-06T10:01:48.826Z,4.36
2023-02-06T10:09:10.116Z,4.32
2023-02-06T10:16:20.168Z,4.41
2023-02-06T10:23:31.247Z,4.66
2023-02-06T10:31:00.184Z,4.62
2023-02-06T10:38:31.116Z,4.21
2023-02-06T10:45:36.599Z,4.31
2023-02-06T10:52:39.210Z,4.20
2023-02-06T10:59:45.482Z,4.37
2023-02-06T11:06:47.441Z,4.24
2023-02-06T11:13:54.328Z,4.72
2023-02-06T11:20:55.987Z,4.66
2023-02-06T11:27:57.906Z,4.59
2023-02-06T11:35:00.657Z,4.86
2023-02-06T11:42:15.357Z,4.27
2023-02-06T11:49:28.964Z,3.88
2023-02-06T11:56:30.921Z,4.31
2023-02-06T12:03:35.477Z,4.59
2023-02-06T12:10:40.471Z,4.75
2023-02-06T12:17:55.470Z,4.70
2023-02-06T12:25:00.019Z,4.84
2023-02-06T12:32:15.201Z,4.86
2023-02-06T12:39:20.050Z,4.71
2023-02-06T12:46:26.023Z,4.82
2023-02-06T12:53:31.113Z,5.09
2023-02-06T13:01:01.250Z,5.09
2023-02-06T13:08:08.407Z,5.26
2023-02-06T13:15:21.042Z,5.51
2023-02-06T13:22:38.077Z,4.83
2023-02-06T13:29:47.040Z,4.83
2023-02-06T13:36:50.548Z,5.28
2023-02-06T13:43:59.480Z,5.15
2023-02-06T13:51:38.198Z,4.84
2023-02-06T13:58:50.784Z,4.94
2023-02-06T14:06:14.665Z,5.25
2023-02-06T14:13:40.355Z,5.11
2023-02-06T14:21:09.707Z,5.11
2023-02-06T14:28:40.705Z,5.26
2023-02-06T14:36:04.054Z,5.22
2023-02-06T14:43:07.218Z,5.27
2023-02-06T14:50:24.035Z,5.17
2023-02-06T14:57:30.003Z,4.82
2023-02-06T15:04:31.602Z,4.81
2023-02-06T15:11:33.426Z,4.59
2023-02-06T15:18:35.224Z,4.77
2023-02-06T15:26:07.659Z,4.77
2023-02-06T15:33:10.519Z,4.69
2023-02-06T15:40:31.588Z,4.80
2023-02-06T15:47:33.157Z,4.67
2023-02-06T15:54:34.735Z,4.38
2023-02-06T16:01:39.045Z,4.49
2023-02-06T16:08:40.570Z,4.41
2023-02-06T16:15:42.807Z,4.43
2023-02-06T16:22:44.311Z,4.43
2023-02-06T16:29:48.970Z,4.49
2023-02-06T16:36:50.512Z,4.37
2023-02-06T16:43:52.848Z,4.24
2023-02-06T16:50:54.430Z,4.36
2023-02-06T16:57:58.615Z,4.32
2023-02-06T17:05:00.259Z,4.29
2023-02-06T17:12:01.843Z,4.28
2023-02-06T17:19:03.362Z,4.17
2023-02-06T17:26:05.047Z,4.16
2023-02-06T17:33:06.749Z,4.14
2023-02-06T17:40:09.259Z,4.07
2023-02-06T17:47:10.927Z,4.03
2023-02-06T17:54:12.653Z,3.95
2023-02-06T18:01:19.318Z,3.88
2023-02-06T18:08:21.548Z,3.94
2023-02-06T18:15:23.106Z,3.93
2023-02-06T18:22:24.673Z,3.94
2023-02-06T18:29:26.269Z,3.93
2023-02-06T18:36:29.736Z,3.76
2023-02-06T18:43:31.528Z,3.72
2023-02-06T18:50:33.750Z,3.58
2023-02-06T18:57:35.617Z,3.78
2023-02-06T19:04:37.118Z,3.71
2023-02-06T19:11:39.394Z,3.67
2023-02-06T19:18:42.938Z,3.66
2023-02-06T19:25:44.472Z,3.63
2023-02-06T19:32:48.028Z,3.59
2023-02-06T19:39:49.546Z,3.53
2023-02-06T19:46:51.092Z,3.64
2023-02-06T19:53:53.377Z,3.58
2023-02-06T20:00:55.517Z,3.56
2023-02-06T20:07:57.271Z,3.46
2023-02-06T20:15:00.161Z,3.35
2023-02-06T20:22:02.456Z,3.39
2023-02-06T20:29:05.000Z,3.33
2023-02-06T20:36:08.090Z,3.37
2023-02-06T20:43:09.609Z,3.33
2023-02-06T20:50:11.122Z,3.31
2023-02-06T20:57:12.738Z,3.18
2023-02-06T21:04:14.881Z,3.07
2023-02-06T21:11:16.904Z,3.08
2023-02-06T21:18:18.621Z,3.28
2023-02-06T21:25:20.487Z,3.15
2023-02-06T21:32:22.000Z,3.24
2023-02-06T21:39:26.850Z,3.15
2023-02-06T21:46:30.867Z,3.05
2023-02-06T21:53:32.473Z,3.14
2023-02-06T22:00:34.004Z,3.00
2023-02-06T22:07:36.556Z,2.87
2023-02-06T22:14:38.078Z,2.97
2023-02-06T22:21:39.744Z,2.97
2023-02-06T22:28:41.437Z,2.79
2023-02-06T22:35:42.972Z,2.90
2023-02-06T22:42:44.491Z,2.74
2023-02-06T22:49:46.060Z,2.92
2023-02-06T22:56:47.742Z,2.97
2023-02-06T23:03:53.251Z,2.77
2023-02-06T23:10:54.779Z,2.69
2023-02-06T23:17:56.284Z,2.74
2023-02-06T23:24:58.002Z,2.74
2023-02-06T23:31:59.575Z,3.00
2023-02-06T23:39:01.847Z,2.89
2023-02-06T23:46:03.688Z,2.95
2023-02-06T23:53:05.227Z,2.94
